Time;durP1;ratioP1;P1;durP2;ratioP2;P2;SDS_P1;SDS_P2;PMS_P1;PMS_P2;Temp;Humidity;BMP_temperature;BMP_pressure;BME280_temperature;BME280_humidity;BME280_pressure;Samples;Min_cycle;Max_cycle;Signal;HPM_P1;HPM_P2
2022/06/05 00:00:21;;;;;;;9.82;5.32;;;18.70;72.60;;;;;;5036077;28;20025;-64
2022/06/05 00:02:56;;;;;;;6.18;5.38;;;18.60;72.70;;;;;;5032392;28;20030;-64
2022/06/05 00:05:28;;;;;;;5.95;4.82;;;18.60;72.90;;;;;;5035230;28;20013;-64
2022/06/05 00:08:04;;;;;;;8.20;4.85;;;18.50;73.10;;;;;;5032762;28;20035;-64
2022/06/05 00:10:49;;;;;;;7.45;4.72;;;18.50;73.20;;;;;;5040200;28;20377;-64
2022/06/05 00:13:30;;;;;;;6.32;4.57;;;18.50;73.20;;;;;;5037608;28;20021;-64
2022/06/05 00:15:56;;;;;;;8.30;5.57;;;18.50;73.30;;;;;;5040309;28;20021;-64
2022/06/05 00:18:22;;;;;;;8.52;5.38;;;18.40;73.80;;;;;;5034721;28;20026;-64
2022/06/05 00:20:48;;;;;;;7.63;5.70;;;18.40;74.00;;;;;;5036014;28;20606;-64
2022/06/05 00:23:14;;;;;;;9.07;5.93;;;18.30;75.00;;;;;;5054794;28;20033;-64
2022/06/05 00:26:06;;;;;;;8.25;5.50;;;18.30;74.50;;;;;;5038353;28;20502;-64
2022/06/05 00:28:39;;;;;;;7.47;5.20;;;18.30;74.60;;;;;;5039515;28;20032;-64
2022/06/05 00:31:12;;;;;;;6.47;5.00;;;18.20;74.80;;;;;;5035435;28;20083;-64
2022/06/05 00:33:43;;;;;;;8.25;5.65;;;18.20;75.00;;;;;;5032009;28;20447;-64
2022/06/05 00:36:34;;;;;;;7.05;5.60;;;18.20;75.20;;;;;;5039893;28;20029;-64
2022/06/05 00:39:11;;;;;;;8.55;5.80;;;18.20;75.20;;;;;;5035061;28;20025;-64
2022/06/05 00:41:58;;;;;;;8.30;5.93;;;18.10;75.50;;;;;;5036985;28;20030;-64
2022/06/05 00:44:32;;;;;;;7.72;5.50;;;18.10;75.70;;;;;;5034163;28;20140;-64
2022/06/05 00:46:59;;;;;;;7.35;5.30;;;18.10;76.00;;;;;;5038547;28;20507;-64
2022/06/05 00:49:36;;;;;;;8.43;5.50;;;18.00;76.20;;;;;;5037372;28;20089;-64
2022/06/05 00:52:02;;;;;;;11.57;5.90;;;18.00;76.20;;;;;;5040958;28;20059;-64
2022/06/05 00:54:28;;;;;;;7.82;5.80;;;17.90;76.50;;;;;;5035635;28;20030;-64
2022/06/05 00:56:54;;;;;;;10.15;6.10;;;17.90;76.70;;;;;;5036428;28;20059;-64
2022/06/05 00:59:20;;;;;;;8.73;6.55;;;17.80;76.80;;;;;;5036864;28;20473;-64
2022/06/05 01:01:48;;;;;;;8.13;5.43;;;17.80;77.10;;;;;;5033959;28;20030;-64
2022/06/05 01:04:15;;;;;;;7.55;5.32;;;17.80;77.60;;;;;;5044654;28;20018;-64
2022/06/05 01:06:41;;;;;;;7.40;5.68;;;17.80;76.90;;;;;;5036929;28;20469;-64
2022/06/05 01:09:07;;;;;;;10.88;5.88;;;17.80;76.90;;;;;;5037001;28;20044;-64
2022/06/05 01:11:37;;;;;;;7.90;5.50;;;17.80;77.00;;;;;;5036621;28;20063;-64
2022/06/05 01:14:28;;;;;;;10.77;6.43;;;17.80;77.00;;;;;;5034776;28;20477;-64
2022/06/05 01:17:02;;;;;;;5.75;5.00;;;17.70;77.20;;;;;;5031534;28;20029;-64
2022/06/05 01:19:44;;;;;;;7.88;5.45;;;17.70;77.30;;;;;;5041580;28;20029;-64
2022/06/05 01:22:18;;;;;;;8.77;5.72;;;17.60;77.40;;;;;;5033556;28;20018;-64
2022/06/05 01:25:23;;;;;;;8.07;5.40;;;17.60;77.80;;;;;;5035724;28;20037;-64
2022/06/05 01:27:57;;;;;;;8.52;6.82;;;17.60;77.70;;;;;;5036006;28;20021;-64
2022/06/05 01:30:24;;;;;;;8.20;5.68;;;17.60;78.30;;;;;;5036136;28;20401;-64
2022/06/05 01:33:12;;;;;;;8.90;5.70;;;17.50;78.60;;;;;;5034512;28;20029;-64
2022/06/05 01:35:43;;;;;;;9.82;6.25;;;17.50;78.60;;;;;;5033423;28;20029;-64
2022/06/05 01:38:18;;;;;;;8.52;6.18;;;17.50;78.60;;;;;;5036985;28;20115;-64
2022/06/05 01:40:48;;;;;;;6.93;5.60;;;17.40;78.80;;;;;;5033335;28;20048;-64
2022/06/05 01:43:18;;;;;;;8.88;6.60;;;17.40;79.10;;;;;;5043534;28;20021;-64
2022/06/05 01:45:46;;;;;;;7.78;6.07;;;17.40;79.10;;;;;;5037069;28;20401;-64
2022/06/05 01:48:19;;;;;;;7.32;5.03;;;17.40;79.20;;;;;;5041235;28;20021;-64
2022/06/05 01:50:48;;;;;;;10.68;6.45;;;17.40;79.40;;;;;;5036769;28;20024;-64
2022/06/05 01:53:24;;;;;;;7.70;6.10;;;17.40;79.50;;;;;;5036611;28;20590;-64
2022/06/05 01:56:01;;;;;;;8.88;6.22;;;17.30;79.50;;;;;;5041142;28;20049;-64
2022/06/05 01:58:42;;;;;;;8.30;6.38;;;17.30;79.90;;;;;;5036309;28;20044;-64
2022/06/05 02:01:13;;;;;;;8.07;6.00;;;17.20;80.10;;;;;;5033175;28;20505;-64
2022/06/05 02:04:12;;;;;;;8.48;6.50;;;17.20;80.50;;;;;;5037344;28;20037;-64
2022/06/05 02:06:49;;;;;;;9.57;6.72;;;17.10;80.50;;;;;;5028915;28;20026;-64
2022/06/05 02:09:29;;;;;;;8.18;6.30;;;17.10;81.00;;;;;;5039333;28;20025;-64
2022/06/05 02:11:55;;;;;;;;;;;17.10;81.20;;;;;;5032706;28;20385;-64
2022/06/05 02:14:20;;;;;;;8.93;6.65;;;17.00;81.30;;;;;;5032555;28;19915;-64
2022/06/05 02:16:46;;;;;;;8.88;6.30;;;16.90;81.80;;;;;;5032571;28;20024;-64
2022/06/05 02:19:21;;;;;;;9.10;6.90;;;16.90;81.60;;;;;;5038146;28;20555;-64
2022/06/05 02:21:48;;;;;;;11.18;7.53;;;17.00;81.70;;;;;;5030372;28;20018;-64
2022/06/05 02:24:15;;;;;;;7.47;6.68;;;16.90;81.90;;;;;;5031081;28;20542;-64
2022/06/05 02:26:41;;;;;;;9.13;5.97;;;16.90;81.90;;;;;;5034026;28;20056;-64
2022/06/05 02:29:24;;;;;;;9.45;7.00;;;16.90;81.90;;;;;;5032437;28;20051;-64
2022/06/05 02:32:08;;;;;;;10.25;6.80;;;16.90;81.90;;;;;;5033921;28;20468;-64
2022/06/05 02:34:49;;;;;;;7.38;6.45;;;16.90;82.00;;;;;;5033031;28;20026;-64
2022/06/05 02:37:29;;;;;;;10.63;7.53;;;16.80;82.20;;;;;;5031762;28;20512;-64
2022/06/05 02:40:11;;;;;;;8.55;7.22;;;16.80;82.60;;;;;;5032670;28;20385;-64
2022/06/05 02:42:55;;;;;;;8.30;7.00;;;16.80;82.70;;;;;;5032012;28;20024;-64
2022/06/05 02:45:20;;;;;;;9.13;7.07;;;16.70;82.90;;;;;;5033630;28;20026;-64
2022/06/05 02:47:46;;;;;;;10.75;7.38;;;16.70;82.90;;;;;;5036594;28;20020;-64
2022/06/05 02:50:28;;;;;;;9.40;6.75;;;16.70;82.90;;;;;;5037666;28;20741;-64
2022/06/05 02:53:01;;;;;;;9.90;7.00;;;16.70;82.90;;;;;;5036807;28;20077;-64
2022/06/05 02:55:28;;;;;;;10.48;8.27;;;16.60;83.10;;;;;;5030563;28;20025;-64
2022/06/05 02:57:54;;;;;;;9.43;6.95;;;16.60;83.30;;;;;;5030909;28;20033;-64
2022/06/05 03:00:23;;;;;;;10.23;7.07;;;16.60;83.50;;;;;;5031591;28;20871;-64
2022/06/05 03:05:34;;;;;;;9.73;7.13;;;16.60;83.50;;;;;;5034559;28;20048;-64
2022/06/05 03:08:00;;;;;;;10.13;7.97;;;16.50;83.60;;;;;;5031553;28;20026;-64
2022/06/05 03:10:26;;;;;;;11.80;7.97;;;16.50;83.80;;;;;;5037301;28;20017;-64
2022/06/05 03:12:52;;;;;;;10.02;7.90;;;16.50;84.00;;;;;;5034382;28;20091;-64
2022/06/05 03:15:17;;;;;;;8.40;7.38;;;16.50;84.10;;;;;;5030667;28;20505;-64
2022/06/05 03:17:44;;;;;;;10.45;8.13;;;16.50;84.20;;;;;;5034599;28;20395;-64
2022/06/05 03:20:11;;;;;;;9.98;7.40;;;16.50;84.50;;;;;;5032257;28;20056;-64
2022/06/05 03:22:39;;;;;;;10.55;7.80;;;16.40;84.60;;;;;;5035376;28;20062;-64
2022/06/05 03:25:05;;;;;;;9.00;7.82;;;16.40;84.80;;;;;;5032606;28;20037;-64
2022/06/05 03:27:31;;;;;;;11.77;7.05;;;16.40;85.10;;;;;;5031207;28;20036;-64
2022/06/05 03:29:58;;;;;;;11.50;7.80;;;16.30;85.10;;;;;;5027565;28;20493;-64
2022/06/05 03:32:25;;;;;;;13.48;8.32;;;16.30;85.30;;;;;;5033358;28;20033;-64
2022/06/05 03:34:50;;;;;;;8.68;7.10;;;16.30;85.50;;;;;;5034519;28;20032;-64
2022/06/05 03:37:16;;;;;;;9.85;7.50;;;16.30;85.50;;;;;;5028965;28;20022;-64
2022/06/05 03:39:42;;;;;;;9.23;7.70;;;16.30;85.70;;;;;;5036765;28;20026;-64
2022/06/05 03:42:07;;;;;;;10.23;8.27;;;16.30;85.90;;;;;;5037141;28;20037;-64
2022/06/05 03:44:37;;;;;;;8.73;7.13;;;16.20;85.80;;;;;;5036724;28;20469;-63
2022/06/05 03:47:03;;;;;;;9.82;7.75;;;16.30;85.90;;;;;;5034361;28;20022;-64
2022/06/05 03:49:29;;;;;;;8.90;7.53;;;16.30;85.90;;;;;;5028565;28;20446;-64
2022/06/05 03:51:54;;;;;;;12.00;7.68;;;16.20;86.60;;;;;;5037294;28;20049;-64
2022/06/05 03:54:20;;;;;;;10.43;8.30;;;16.20;86.10;;;;;;5034370;28;20791;-64
2022/06/05 03:56:45;;;;;;;9.93;7.03;;;16.20;86.20;;;;;;5031310;28;20424;-64
2022/06/05 03:59:11;;;;;;;8.93;7.13;;;16.10;86.20;;;;;;5037048;28;20466;-64
2022/06/05 04:01:36;;;;;;;8.55;7.30;;;16.10;86.40;;;;;;5034751;28;20366;-64
2022/06/05 04:04:02;;;;;;;11.55;8.57;;;16.20;86.50;;;;;;5039784;28;20028;-64
2022/06/05 04:06:30;;;;;;;13.50;8.20;;;16.10;86.70;;;;;;5031807;28;20358;-64
2022/06/05 04:08:57;;;;;;;10.30;7.90;;;16.10;87.00;;;;;;5029362;28;20572;-64
2022/06/05 04:11:24;;;;;;;11.82;8.43;;;16.10;87.20;;;;;;5037435;28;20108;-64
2022/06/05 04:13:50;;;;;;;11.60;9.10;;;16.10;87.30;;;;;;5036400;28;20512;-64
2022/06/05 04:16:24;;;;;;;12.35;9.15;;;16.10;87.60;;;;;;5033809;28;20061;-64
2022/06/05 04:18:51;;;;;;;10.82;8.95;;;16.10;87.90;;;;;;5036410;28;20025;-64
2022/06/05 04:21:20;;;;;;;12.00;9.00;;;16.00;88.10;;;;;;5036653;28;20056;-64
2022/06/05 04:23:46;;;;;;;11.98;8.40;;;16.10;88.10;;;;;;5027011;28;20025;-64
2022/06/05 04:26:16;;;;;;;11.77;8.52;;;16.10;88.20;;;;;;5032925;28;20556;-64
2022/06/05 04:28:43;;;;;;;12.32;8.65;;;16.10;88.40;;;;;;5037111;28;20489;-64
2022/06/05 04:31:21;;;;;;;13.95;9.55;;;16.00;88.40;;;;;;5036510;28;20059;-64
2022/06/05 04:33:47;;;;;;;12.23;8.23;;;16.10;88.60;;;;;;5032132;28;20028;-64
2022/06/05 04:36:13;;;;;;;12.27;8.50;;;16.00;88.70;;;;;;5033867;28;20481;-64
2022/06/05 04:38:39;;;;;;;10.20;8.80;;;16.00;88.70;;;;;;5032847;28;20034;-64
2022/06/05 04:41:04;;;;;;;12.63;9.13;;;16.00;88.70;;;;;;5043045;28;20033;-64
2022/06/05 04:43:30;;;;;;;11.40;9.05;;;16.00;88.70;;;;;;5035241;28;20073;-64
2022/06/05 04:45:55;;;;;;;13.20;8.48;;;16.00;89.00;;;;;;5030787;28;20422;-64
2022/06/05 04:48:21;;;;;;;11.65;8.88;;;16.00;89.00;;;;;;5033446;28;20033;-64
2022/06/05 04:50:46;;;;;;;11.23;8.68;;;16.00;89.10;;;;;;5039642;28;20039;-64
2022/06/05 04:53:12;;;;;;;14.10;9.30;;;16.00;89.00;;;;;;5036677;28;20128;-64
2022/06/05 04:55:38;;;;;;;11.25;8.88;;;16.00;89.00;;;;;;5036813;28;20040;-63
2022/06/05 04:58:04;;;;;;;12.35;8.68;;;16.00;89.00;;;;;;5035402;28;20065;-63
2022/06/05 05:00:30;;;;;;;12.23;8.70;;;16.00;89.10;;;;;;5040188;28;20029;-63
2022/06/05 05:02:55;;;;;;;13.75;9.88;;;16.10;89.20;;;;;;5039114;28;20025;-63
2022/06/05 05:05:21;;;;;;;11.70;9.13;;;16.10;89.20;;;;;;5039663;28;20060;-63
2022/06/05 05:07:47;;;;;;;11.55;9.10;;;16.10;89.30;;;;;;5033870;28;20093;-63
2022/06/05 05:10:12;;;;;;;13.18;9.90;;;16.10;89.50;;;;;;5039502;28;20024;-63
2022/06/05 05:12:39;;;;;;;12.32;9.32;;;16.10;89.60;;;;;;5036613;28;20425;-63
2022/06/05 05:15:05;;;;;;;11.30;9.35;;;16.10;89.60;;;;;;5036203;28;20076;-63
2022/06/05 05:17:31;;;;;;;13.05;9.02;;;16.10;89.80;;;;;;5034464;28;20025;-63
2022/06/05 05:19:58;;;;;;;10.65;9.43;;;16.10;89.80;;;;;;5034812;28;20037;-63
2022/06/05 05:22:24;;;;;;;13.30;10.45;;;16.10;89.90;;;;;;5036455;28;20030;-63
2022/06/05 05:24:49;;;;;;;13.52;9.75;;;16.10;90.00;;;;;;5031976;28;20032;-64
2022/06/05 05:27:15;;;;;;;15.10;10.18;;;16.10;90.10;;;;;;5029488;28;20017;-63
2022/06/05 05:29:41;;;;;;;12.90;9.55;;;16.10;90.10;;;;;;5031582;28;20065;-63
2022/06/05 05:32:10;;;;;;;16.40;10.52;;;16.10;90.20;;;;;;5036209;28;20493;-63
2022/06/05 05:34:36;;;;;;;14.20;10.13;;;16.10;90.10;;;;;;5029567;28;20048;-63
2022/06/05 05:37:02;;;;;;;12.00;9.40;;;16.10;90.20;;;;;;5035423;28;20033;-63
2022/06/05 05:42:12;;;;;;;13.02;9.60;;;16.20;90.30;;;;;;5036331;28;20028;-63
2022/06/05 05:44:40;;;;;;;12.25;9.05;;;16.20;90.30;;;;;;5035826;28;20013;-63
2022/06/05 05:47:27;;;;;;;13.88;9.70;;;16.20;90.30;;;;;;5038104;28;20026;-63
2022/06/05 05:49:56;;;;;;;12.20;9.07;;;16.20;90.20;;;;;;5033035;28;20034;-63
2022/06/05 05:52:23;;;;;;;11.65;9.55;;;16.20;90.20;;;;;;5039910;28;20080;-63
2022/06/05 05:54:48;;;;;;;13.88;10.52;;;16.30;90.10;;;;;;5032854;28;20076;-63
2022/06/05 05:57:14;;;;;;;12.43;8.60;;;16.30;90.10;;;;;;5028918;28;20033;-63
2022/06/05 05:59:41;;;;;;;10.25;8.95;;;16.30;90.10;;;;;;5034867;28;20097;-63
2022/06/05 06:02:11;;;;;;;9.45;8.10;;;16.40;90.00;;;;;;5035792;28;20099;-63
2022/06/05 06:04:38;;;;;;;12.48;8.90;;;16.40;89.80;;;;;;5041331;28;20384;-63
2022/06/05 06:07:03;;;;;;;11.70;9.30;;;16.50;89.80;;;;;;5028888;28;20103;-63
2022/06/05 06:09:29;;;;;;;9.43;7.53;;;16.50;89.50;;;;;;5035502;28;20485;-63
2022/06/05 06:11:55;;;;;;;9.85;7.72;;;16.60;89.30;;;;;;5034174;28;20044;-63
2022/06/05 06:14:20;;;;;;;9.60;7.90;;;16.60;88.90;;;;;;5035324;28;20435;-63
2022/06/05 06:16:46;;;;;;;10.13;7.72;;;16.70;88.70;;;;;;5034975;28;20018;-63
2022/06/05 06:19:11;;;;;;;9.07;6.90;;;16.70;88.50;;;;;;5037678;28;20480;-63
2022/06/05 06:21:37;;;;;;;10.23;8.75;;;16.80;88.20;;;;;;5043184;28;20083;-63
2022/06/05 06:24:03;;;;;;;10.10;7.90;;;16.90;87.90;;;;;;5037178;28;20568;-63
2022/06/05 06:26:28;;;;;;;10.77;7.13;;;16.90;87.80;;;;;;5040392;28;20400;-63
2022/06/05 06:28:54;;;;;;;9.43;7.70;;;17.00;87.80;;;;;;5035813;28;20112;-63
2022/06/05 06:31:20;;;;;;;9.02;7.28;;;17.00;87.80;;;;;;5033449;28;20091;-63
2022/06/05 06:33:48;;;;;;;9.70;7.45;;;17.10;87.60;;;;;;5035060;28;20480;-63
2022/06/05 06:36:14;;;;;;;8.93;7.25;;;17.20;87.50;;;;;;5035137;28;20071;-63
2022/06/05 06:38:40;;;;;;;10.07;8.05;;;17.20;87.40;;;;;;5036304;28;20362;-63
2022/06/05 06:41:12;;;;;;;10.68;8.48;;;17.30;87.30;;;;;;5033591;28;20484;-63
2022/06/05 06:43:38;;;;;;;11.15;8.90;;;17.40;87.10;;;;;;5034750;28;20017;-63
2022/06/05 06:46:04;;;;;;;8.88;7.88;;;17.50;86.90;;;;;;5037625;28;20025;-63
2022/06/05 06:48:31;;;;;;;10.18;7.43;;;17.50;86.30;;;;;;5042916;28;20524;-64
2022/06/05 06:50:58;;;;;;;8.40;7.25;;;17.60;86.00;;;;;;5049059;28;20013;-64
2022/06/05 06:53:25;;;;;;;8.70;7.75;;;17.70;85.70;;;;;;5032263;28;20048;-63
2022/06/05 06:55:51;;;;;;;9.90;7.93;;;17.80;85.50;;;;;;5035793;28;20045;-63
2022/06/05 06:58:17;;;;;;;8.13;7.32;;;17.90;85.30;;;;;;5046366;28;20380;-63
2022/06/05 07:00:43;;;;;;;9.02;7.93;;;17.90;85.10;;;;;;5037511;28;20033;-63
2022/06/05 07:03:09;;;;;;;7.80;7.00;;;18.10;84.90;;;;;;5045432;28;20388;-63
2022/06/05 07:05:35;;;;;;;10.77;7.82;;;18.10;84.30;;;;;;5033280;28;20082;-63
2022/06/05 07:08:00;;;;;;;8.98;7.97;;;18.20;83.90;;;;;;5044568;28;20287;-64
2022/06/05 07:10:26;;;;;;;8.88;7.20;;;18.40;83.60;;;;;;5031354;28;20167;-63
2022/06/05 07:12:52;;;;;;;11.35;7.40;;;18.40;83.20;;;;;;5036707;28;20104;-63
2022/06/05 07:15:19;;;;;;;9.07;6.95;;;18.50;82.80;;;;;;5045177;28;20495;-63
2022/06/05 07:17:45;;;;;;;8.13;7.13;;;18.60;82.60;;;;;;5046743;28;20021;-63
2022/06/05 07:20:11;;;;;;;11.13;7.93;;;18.70;82.30;;;;;;5043426;28;20032;-63
2022/06/05 07:22:37;;;;;;;7.82;6.95;;;18.70;82.10;;;;;;5044383;28;20024;-64
2022/06/05 07:25:03;;;;;;;8.48;7.55;;;18.80;81.70;;;;;;5045600;28;20479;-63
2022/06/05 07:27:29;;;;;;;10.20;8.13;;;18.90;81.50;;;;;;5046881;28;20063;-64
2022/06/05 07:29:55;;;;;;;8.85;7.25;;;19.00;81.30;;;;;;5047854;28;20435;-63
2022/06/05 07:32:21;;;;;;;9.02;7.72;;;19.00;81.10;;;;;;5047085;28;20053;-60
2022/06/05 07:34:48;;;;;;;10.00;6.93;;;19.10;80.80;;;;;;5041527;28;20043;-60
2022/06/05 07:37:14;;;;;;;7.40;6.65;;;19.20;80.70;;;;;;5043885;28;20024;-59
2022/06/05 07:39:43;;;;;;;9.95;7.57;;;19.20;80.40;;;;;;5037178;28;20029;-60
2022/06/05 07:42:10;;;;;;;8.52;6.85;;;19.30;79.90;;;;;;5043739;28;20025;-60
2022/06/05 07:44:36;;;;;;;8.15;6.97;;;19.40;79.90;;;;;;5039353;28;20035;-59
2022/06/05 07:47:06;;;;;;;10.68;7.45;;;19.50;79.60;;;;;;5044624;28;20646;-60
2022/06/05 07:49:34;;;;;;;8.30;7.22;;;19.50;79.40;;;;;;5040682;28;20036;-60
2022/06/05 07:54:44;;;;;;;9.45;7.30;;;19.70;78.80;;;;;;5043528;28;20032;-60
2022/06/05 07:57:13;;;;;;;7.43;6.65;;;19.70;78.60;;;;;;5040155;28;20022;-59
2022/06/05 07:59:41;;;;;;;8.63;6.27;;;19.80;78.60;;;;;;5045225;28;20049;-61
2022/06/05 08:02:20;;;;;;;9.63;7.00;;;19.90;78.40;;;;;;5043862;28;20017;-60
2022/06/05 08:04:46;;;;;;;7.90;7.10;;;20.00;77.60;;;;;;5040077;28;20385;-61
2022/06/05 08:07:16;;;;;;;8.80;7.90;;;20.00;77.70;;;;;;5039791;28;20392;-60
2022/06/05 08:09:43;;;;;;;7.47;6.75;;;20.10;77.80;;;;;;5048584;28;20049;-60
2022/06/05 08:12:10;;;;;;;8.50;7.25;;;20.30;77.50;;;;;;5044404;28;20470;-61
2022/06/05 08:14:38;;;;;;;6.95;6.25;;;20.30;77.00;;;;;;5043513;28;20017;-61
2022/06/05 08:17:06;;;;;;;8.40;6.90;;;20.40;76.90;;;;;;5047078;28;20104;-61
2022/06/05 08:19:32;;;;;;;8.05;6.53;;;20.50;77.10;;;;;;5045682;28;20026;-61
2022/06/05 08:21:58;;;;;;;7.97;6.65;;;20.70;77.10;;;;;;5039355;28;20075;-61
2022/06/05 08:24:23;;;;;;;9.63;6.47;;;20.80;76.50;;;;;;5037118;28;20363;-61
2022/06/05 08:26:51;;;;;;;7.38;6.35;;;20.90;76.00;;;;;;5036418;28;20100;-61
2022/06/05 08:29:17;;;;;;;5.47;4.97;;;20.90;75.50;;;;;;5036882;28;20125;-61
2022/06/05 08:31:43;;;;;;;8.35;7.00;;;21.00;75.20;;;;;;5039327;28;20082;-61
2022/06/05 08:34:09;;;;;;;6.97;6.28;;;21.10;74.60;;;;;;5038749;28;20056;-61
2022/06/05 08:36:35;;;;;;;7.43;6.00;;;21.20;74.60;;;;;;5048247;28;20037;-61
2022/06/05 08:41:47;;;;;;;7.20;6.28;;;21.40;75.10;;;;;;5047103;28;20040;-61
2022/06/05 08:44:16;;;;;;;6.63;5.88;;;21.50;74.40;;;;;;5051868;28;20024;-60
2022/06/05 08:46:52;;;;;;;6.95;5.72;;;21.60;74.30;;;;;;5047863;28;20114;-61
2022/06/05 08:49:24;;;;;;;6.30;5.70;;;21.70;74.10;;;;;;5043523;28;20393;-60
2022/06/05 08:52:01;;;;;;;8.02;6.70;;;21.90;73.80;;;;;;5050381;28;20055;-61
2022/06/05 08:54:57;;;;;;;8.70;6.00;;;22.00;72.90;;;;;;5033823;28;20029;-61
2022/06/05 08:57:52;;;;;;;6.13;5.30;;;22.10;72.60;;;;;;5035006;28;20100;-61
2022/06/05 09:00:21;;;;;;;5.97;5.43;;;22.20;72.50;;;;;;5034923;28;20094;-61
2022/06/05 09:03:21;;;;;;;5.57;4.72;;;22.30;72.40;;;;;;5048188;28;20439;-61
2022/06/05 09:05:51;;;;;;;6.45;5.70;;;22.50;71.90;;;;;;5044886;28;20031;-61
2022/06/05 09:08:23;;;;;;;4.90;4.35;;;22.60;71.70;;;;;;5036499;28;20018;-61
2022/06/05 09:10:52;;;;;;;6.18;5.20;;;22.60;71.70;;;;;;5035241;28;20025;-61
2022/06/05 09:13:37;;;;;;;4.47;4.05;;;22.70;71.60;;;;;;5034527;28;20037;-61
2022/06/05 09:16:16;;;;;;;6.25;5.65;;;22.80;71.50;;;;;;5034700;28;20025;-61
2022/06/05 09:18:47;;;;;;;4.45;4.05;;;22.80;71.50;;;;;;5034894;28;20036;-61
2022/06/05 09:21:22;;;;;;;6.40;4.95;;;23.00;71.50;;;;;;5034469;28;20030;-61
2022/06/05 09:24:07;;;;;;;4.88;4.15;;;23.00;71.30;;;;;;5047590;28;20051;-61
2022/06/05 09:26:50;;;;;;;5.03;4.10;;;23.10;71.30;;;;;;5044001;28;20044;-61
2022/06/05 09:29:36;;;;;;;4.35;3.92;;;23.20;71.40;;;;;;5035936;28;20022;-61
2022/06/05 09:32:17;;;;;;;5.05;4.32;;;23.30;70.80;;;;;;5047177;28;20035;-61
2022/06/05 09:35:06;;;;;;;6.00;5.28;;;23.30;70.00;;;;;;5033003;28;20079;-61
2022/06/05 09:37:48;;;;;;;4.70;4.22;;;23.20;69.20;;;;;;5035009;28;20021;-60
2022/06/05 09:40:16;;;;;;;4.72;3.53;;;23.20;69.90;;;;;;5038553;28;20032;-60
2022/06/05 09:42:59;;;;;;;4.20;3.80;;;23.20;70.30;;;;;;5043302;28;20440;-61
2022/06/05 09:45:53;;;;;;;4.22;3.53;;;23.40;70.40;;;;;;5034070;28;20021;-61
2022/06/05 09:48:56;;;;;;;4.93;4.43;;;23.50;70.00;;;;;;5033980;28;20021;-60
2022/06/05 09:51:22;;;;;;;6.03;4.70;;;23.40;69.00;;;;;;5049991;28;20033;-61
2022/06/05 09:54:19;;;;;;;5.20;4.25;;;23.40;70.60;;;;;;5051864;28;20045;-61
2022/06/05 10:00:00;;;;;;;5.05;4.20;;;23.50;70.90;;;;;;5044647;28;20518;-60
2022/06/05 10:02:26;;;;;;;5.22;4.63;;;23.50;69.80;;;;;;5043355;28;20044;-61
2022/06/05 10:04:55;;;;;;;5.82;4.20;;;23.40;69.50;;;;;;5044276;28;20477;-61
2022/06/05 10:07:28;;;;;;;;;;;23.40;69.40;;;;;;5050001;28;20021;-60
2022/06/05 10:09:54;;;;;;;4.95;3.40;;;23.40;69.80;;;;;;5048477;28;19955;-60
2022/06/05 10:12:33;;;;;;;4.30;3.90;;;23.50;69.60;;;;;;5039959;28;20108;-60
2022/06/05 10:15:20;;;;;;;5.70;4.53;;;23.50;69.20;;;;;;5032750;28;20021;-60
2022/06/05 10:17:53;;;;;;;4.30;3.90;;;23.60;68.90;;;;;;5033455;28;20481;-60
2022/06/05 10:20:36;;;;;;;4.85;4.00;;;23.50;68.80;;;;;;5042878;28;20067;-60
2022/06/05 10:23:04;;;;;;;4.80;4.35;;;23.50;68.80;;;;;;5047368;28;20091;-60
2022/06/05 10:25:58;;;;;;;4.53;4.07;;;23.40;69.20;;;;;;5046959;28;20099;-60
2022/06/05 10:28:30;;;;;;;5.75;5.15;;;23.50;69.40;;;;;;5044941;28;20036;-60
2022/06/05 10:31:24;;;;;;;4.53;4.15;;;23.40;68.60;;;;;;5045316;28;20052;-60
2022/06/05 10:34:09;;;;;;;4.15;3.75;;;23.40;68.90;;;;;;5045499;28;20037;-60
2022/06/05 10:37:03;;;;;;;3.90;3.50;;;23.40;69.20;;;;;;5042131;28;20021;-60
2022/06/05 10:39:51;;;;;;;5.80;3.97;;;23.40;69.50;;;;;;5036672;28;20045;-60
2022/06/05 10:42:52;;;;;;;5.50;3.75;;;23.50;69.10;;;;;;5046198;28;20018;-61
2022/06/05 10:45:35;;;;;;;5.28;4.20;;;23.50;69.50;;;;;;5032956;28;20021;-61
2022/06/05 10:48:24;;;;;;;4.05;3.65;;;23.40;69.90;;;;;;5048608;28;20447;-60
2022/06/05 10:51:00;;;;;;;4.30;3.70;;;23.50;69.70;;;;;;5049184;28;20021;-60
2022/06/05 10:53:34;;;;;;;5.57;4.43;;;23.50;69.90;;;;;;5040591;28;20090;-61
2022/06/05 10:56:25;;;;;;;5.18;4.68;;;23.50;69.60;;;;;;5046659;28;20025;-60
2022/06/05 10:59:17;;;;;;;6.15;5.65;;;23.50;69.40;;;;;;5041520;28;20057;-60
2022/06/05 11:01:42;;;;;;;4.30;3.90;;;23.30;69.80;;;;;;5046243;28;20060;-60
2022/06/05 11:04:23;;;;;;;4.20;3.80;;;23.20;70.70;;;;;;5050117;28;20060;-61
2022/06/05 11:07:01;;;;;;;4.40;4.00;;;23.30;71.00;;;;;;5048650;28;20414;-61
2022/06/05 11:09:26;;;;;;;5.22;4.70;;;23.30;71.20;;;;;;5046396;28;20063;-60
2022/06/05 11:15:17;;;;;;;4.45;4.03;;;23.20;71.90;;;;;;5050244;28;20040;-60
2022/06/05 11:18:01;;;;;;;4.57;3.75;;;23.10;72.20;;;;;;5047380;28;20033;-60
2022/06/05 11:20:28;;;;;;;5.03;4.55;;;23.20;72.50;;;;;;5049623;28;20564;-61
2022/06/05 11:23:18;;;;;;;4.13;3.83;;;23.20;72.90;;;;;;5048247;28;20036;-61
2022/06/05 11:25:49;;;;;;;3.78;3.47;;;23.20;73.00;;;;;;5047596;28;20493;-61
2022/06/05 11:28:53;;;;;;;3.58;3.17;;;23.20;73.20;;;;;;5049238;28;20057;-60
2022/06/05 11:31:35;;;;;;;4.38;3.97;;;23.20;73.00;;;;;;5051879;28;20025;-60
2022/06/05 11:34:31;;;;;;;4.50;4.10;;;23.20;73.00;;;;;;5046026;28;20027;-60
2022/06/05 11:37:35;;;;;;;4.63;4.20;;;23.20;73.10;;;;;;5047791;28;20017;-60
2022/06/05 11:40:12;;;;;;;6.43;4.32;;;23.10;73.20;;;;;;5048984;28;20064;-60
2022/06/05 11:42:49;;;;;;;4.60;4.20;;;23.20;73.20;;;;;;5046070;28;20052;-60
2022/06/05 11:45:14;;;;;;;4.88;4.30;;;23.20;73.10;;;;;;5051419;28;20020;-60
2022/06/05 11:47:50;;;;;;;4.55;4.15;;;23.20;73.10;;;;;;5054251;28;20029;-60
2022/06/05 11:50:42;;;;;;;4.82;4.18;;;23.20;73.00;;;;;;5044206;28;20538;-60
2022/06/05 11:53:34;;;;;;;4.45;4.05;;;23.20;72.90;;;;;;5052085;28;20045;-61
2022/06/05 11:55:59;;;;;;;6.22;5.05;;;23.20;73.10;;;;;;5049808;28;20488;-61
2022/06/05 11:58:38;;;;;;;4.25;3.83;;;23.10;73.40;;;;;;5049127;28;20031;-60
2022/06/05 12:01:27;;;;;;;4.45;4.05;;;23.10;73.50;;;;;;5045165;28;20036;-60
2022/06/05 12:04:06;;;;;;;6.32;4.57;;;23.00;73.60;;;;;;5062929;28;20107;-61
2022/06/05 12:06:39;;;;;;;6.47;5.88;;;23.00;74.40;;;;;;5064024;28;20017;-61
2022/06/05 12:09:13;;;;;;;5.72;5.03;;;22.80;74.60;;;;;;5055714;28;20075;-60
2022/06/05 12:11:45;;;;;;;7.63;5.75;;;22.80;74.80;;;;;;5054579;28;20109;-61
2022/06/05 12:14:29;;;;;;;9.98;7.00;;;22.80;75.50;;;;;;5037383;28;20025;-60
2022/06/05 12:17:03;;;;;;;6.22;5.63;;;22.70;77.00;;;;;;5049053;28;20052;-60
2022/06/05 12:19:54;;;;;;;6.88;6.28;;;22.50;78.60;;;;;;5043191;28;20051;-60
2022/06/05 12:22:41;;;;;;;6.13;5.53;;;22.30;79.90;;;;;;5047574;28;20031;-59
2022/06/05 12:25:12;;;;;;;4.72;4.32;;;22.30;80.70;;;;;;5048003;28;20545;-60
2022/06/05 12:27:58;;;;;;;6.95;6.25;;;22.30;81.10;;;;;;5069128;28;20175;-60
2022/06/05 12:30:30;;;;;;;9.45;8.13;;;22.20;82.50;;;;;;5051176;28;20020;-60
2022/06/05 12:33:17;;;;;;;10.75;9.57;;;22.00;84.50;;;;;;5050306;28;20025;-60
2022/06/05 12:35:46;;;;;;;10.00;8.85;;;21.80;86.40;;;;;;5064338;28;20029;-60
2022/06/05 12:38:33;;;;;;;9.60;8.75;;;21.60;88.60;;;;;;5052035;28;20090;-59
2022/06/05 12:41:13;;;;;;;9.77;8.25;;;21.40;89.90;;;;;;5059759;28;20028;-59
2022/06/05 12:43:47;;;;;;;7.70;7.03;;;21.20;90.70;;;;;;5047921;28;20047;-59
2022/06/05 12:46:36;;;;;;;6.50;5.93;;;21.20;90.90;;;;;;5053317;28;20443;-59
2022/06/05 12:49:14;;;;;;;6.90;6.20;;;21.40;90.50;;;;;;5052266;28;20075;-59
2022/06/05 12:51:43;;;;;;;8.23;7.53;;;21.50;90.40;;;;;;5050612;28;20021;-62
2022/06/05 12:54:36;;;;;;;7.15;6.55;;;21.50;90.70;;;;;;5051916;28;20127;-59
2022/06/05 12:57:08;;;;;;;6.63;5.88;;;21.50;90.60;;;;;;5050115;28;20041;-59
2022/06/05 12:59:59;;;;;;;7.40;6.68;;;21.50;90.60;;;;;;5050132;28;20025;-60
2022/06/05 13:02:39;;;;;;;6.18;5.68;;;21.50;90.70;;;;;;5050748;28;20436;-59
2022/06/05 13:05:23;;;;;;;;;;;21.50;90.70;;;;;;5053962;28;20404;-60
2022/06/05 13:07:55;;;;;;;9.27;8.35;;;21.50;90.80;;;;;;5059489;28;20319;-60
2022/06/05 13:10:29;;;;;;;8.05;7.25;;;21.50;91.50;;;;;;5039372;28;20025;-60
2022/06/05 13:13:17;;;;;;;7.35;6.65;;;21.40;91.60;;;;;;5038589;28;20029;-59
2022/06/05 13:15:48;;;;;;;6.45;5.88;;;21.50;91.50;;;;;;5052363;28;20061;-61
2022/06/05 13:18:43;;;;;;;7.05;6.40;;;21.50;91.60;;;;;;5046455;28;20059;-60
2022/06/05 13:21:19;;;;;;;7.70;6.90;;;21.50;91.60;;;;;;5049783;28;20041;-60
2022/06/05 13:24:00;;;;;;;5.93;5.43;;;21.50;91.80;;;;;;5045367;28;20021;-59
2022/06/05 13:26:38;;;;;;;6.55;5.68;;;21.60;91.80;;;;;;5062663;28;20385;-59
2022/06/05 13:29:25;;;;;;;6.65;6.00;;;21.60;91.80;;;;;;5043514;28;20477;-60
2022/06/05 13:32:16;;;;;;;7.30;5.53;;;21.60;91.70;;;;;;5048052;28;20028;-59